sensor_id;sensor_type;location;lat;lon;timestamp;P1;durP1;ratioP1;P2;durP2;ratioP2
56269;SDS011;42176;43.240;27.880;2022-12-10T00:00:31;31.63;;;14.10;;
56269;SDS011;42176;43.240;27.880;2022-12-10T00:02:56;33.05;;;14.68;;
56269;SDS011;42176;43.240;27.880;2022-12-10T00:05:22;36.60;;;15.65;;
56269;SDS011;42176;43.240;27.880;2022-12-10T00:07:47;30.85;;;14.73;;
56269;SDS011;42176;43.240;27.880;2022-12-10T00:10:13;34.38;;;14.02;;
56269;SDS011;42176;43.240;27.880;2022-12-10T00:12:38;28.02;;;14.68;;
56269;SDS011;42176;43.240;27.880;2022-12-10T00:15:04;18.58;;;10.30;;
56269;SDS011;42176;43.240;27.880;2022-12-10T00:17:29;33.53;;;13.77;;
56269;SDS011;42176;43.240;27.880;2022-12-10T00:19:55;36.20;;;13.80;;
56269;SDS011;42176;43.240;27.880;2022-12-10T00:22:20;37.78;;;15.18;;
56269;SDS011;42176;43.240;27.880;2022-12-10T00:24:46;40.97;;;17.13;;
56269;SDS011;42176;43.240;27.880;2022-12-10T00:27:11;31.08;;;12.80;;
56269;SDS011;42176;43.240;27.880;2022-12-10T00:29:36;22.63;;;12.85;;
56269;SDS011;42176;43.240;27.880;2022-12-10T00:32:02;34.05;;;14.57;;
56269;SDS011;42176;43.240;27.880;2022-12-10T00:34:30;40.90;;;16.73;;
56269;SDS011;42176;43.240;27.880;2022-12-10T00:36:56;34.92;;;16.73;;
56269;SDS011;42176;43.240;27.880;2022-12-10T00:39:21;39.33;;;16.98;;
56269;SDS011;42176;43.240;27.880;2022-12-10T00:41:47;44.08;;;17.90;;
56269;SDS011;42176;43.240;27.880;2022-12-10T00:44:13;34.67;;;15.70;;
56269;SDS011;42176;43.240;27.880;2022-12-10T00:46:39;35.25;;;15.75;;
56269;SDS011;42176;43.240;27.880;2022-12-10T00:49:04;34.78;;;16.05;;
56269;SDS011;42176;43.240;27.880;2022-12-10T00:51:30;29.70;;;13.23;;
56269;SDS011;42176;43.240;27.880;2022-12-10T00:53:56;35.15;;;14.85;;
56269;SDS011;42176;43.240;27.880;2022-12-10T00:56:28;40.40;;;17.00;;
56269;SDS011;42176;43.240;27.880;2022-12-10T00:58:55;39.97;;;16.25;;
56269;SDS011;42176;43.240;27.880;2022-12-10T01:06:24;34.35;;;14.85;;
56269;SDS011;42176;43.240;27.880;2022-12-10T01:08:51;31.92;;;16.25;;
56269;SDS011;42176;43.240;27.880;2022-12-10T01:11:19;34.30;;;16.05;;
56269;SDS011;42176;43.240;27.880;2022-12-10T01:13:46;30.60;;;12.02;;
56269;SDS011;42176;43.240;27.880;2022-12-10T01:16:13;32.88;;;14.93;;
56269;SDS011;42176;43.240;27.880;2022-12-10T01:18:41;45.30;;;17.05;;
56269;SDS011;42176;43.240;27.880;2022-12-10T01:21:08;41.58;;;17.20;;
56269;SDS011;42176;43.240;27.880;2022-12-10T01:23:37;42.05;;;17.60;;
56269;SDS011;42176;43.240;27.880;2022-12-10T01:26:05;36.53;;;15.52;;
56269;SDS011;42176;43.240;27.880;2022-12-10T01:28:33;27.92;;;13.93;;
56269;SDS011;42176;43.240;27.880;2022-12-10T01:31:09;41.63;;;16.40;;
56269;SDS011;42176;43.240;27.880;2022-12-10T01:33:37;17.75;;;12.32;;
56269;SDS011;42176;43.240;27.880;2022-12-10T01:36:04;35.53;;;13.98;;
56269;SDS011;42176;43.240;27.880;2022-12-10T01:38:40;30.85;;;14.70;;
56269;SDS011;42176;43.240;27.880;2022-12-10T01:41:07;36.65;;;16.52;;
56269;SDS011;42176;43.240;27.880;2022-12-10T01:46:27;30.70;;;14.30;;
56269;SDS011;42176;43.240;27.880;2022-12-10T01:48:55;32.42;;;15.15;;
56269;SDS011;42176;43.240;27.880;2022-12-10T01:51:23;33.03;;;15.45;;
56269;SDS011;42176;43.240;27.880;2022-12-10T01:53:50;31.92;;;16.20;;
56269;SDS011;42176;43.240;27.880;2022-12-10T01:56:17;34.85;;;15.90;;
56269;SDS011;42176;43.240;27.880;2022-12-10T01:58:44;36.80;;;14.70;;
56269;SDS011;42176;43.240;27.880;2022-12-10T02:01:32;27.33;;;14.57;;
56269;SDS011;42176;43.240;27.880;2022-12-10T02:04:15;40.20;;;13.45;;
56269;SDS011;42176;43.240;27.880;2022-12-10T02:06:58;30.75;;;13.10;;
56269;SDS011;42176;43.240;27.880;2022-12-10T02:09:31;33.92;;;15.13;;
56269;SDS011;42176;43.240;27.880;2022-12-10T02:22:57;34.88;;;13.63;;
56269;SDS011;42176;43.240;27.880;2022-12-10T02:30:50;35.83;;;12.50;;
56269;SDS011;42176;43.240;27.880;2022-12-10T02:33:17;26.90;;;13.35;;
56269;SDS011;42176;43.240;27.880;2022-12-10T02:35:44;41.90;;;15.05;;
56269;SDS011;42176;43.240;27.880;2022-12-10T02:38:15;34.42;;;15.32;;
56269;SDS011;42176;43.240;27.880;2022-12-10T02:40:46;42.28;;;14.60;;
56269;SDS011;42176;43.240;27.880;2022-12-10T02:43:14;22.83;;;12.38;;
56269;SDS011;42176;43.240;27.880;2022-12-10T02:45:41;38.05;;;12.82;;
56269;SDS011;42176;43.240;27.880;2022-12-10T02:48:08;31.83;;;13.63;;
56269;SDS011;42176;43.240;27.880;2022-12-10T02:50:34;29.38;;;14.27;;
56269;SDS011;42176;43.240;27.880;2022-12-10T02:53:00;32.45;;;14.35;;
56269;SDS011;42176;43.240;27.880;2022-12-10T02:55:26;34.85;;;14.63;;
56269;SDS011;42176;43.240;27.880;2022-12-10T02:58:02;33.83;;;14.77;;
56269;SDS011;42176;43.240;27.880;2022-12-10T03:00:41;30.40;;;13.88;;
56269;SDS011;42176;43.240;27.880;2022-12-10T03:06:09;16.45;;;8.95;;
56269;SDS011;42176;43.240;27.880;2022-12-10T03:11:21;37.08;;;14.45;;
56269;SDS011;42176;43.240;27.880;2022-12-10T03:16:22;38.00;;;13.10;;
56269;SDS011;42176;43.240;27.880;2022-12-10T03:18:50;27.27;;;13.35;;
56269;SDS011;42176;43.240;27.880;2022-12-10T03:21:20;39.03;;;14.43;;
56269;SDS011;42176;43.240;27.880;2022-12-10T03:23:46;31.20;;;14.18;;
56269;SDS011;42176;43.240;27.880;2022-12-10T03:26:14;47.42;;;16.38;;
56269;SDS011;42176;43.240;27.880;2022-12-10T03:28:46;39.28;;;15.52;;
56269;SDS011;42176;43.240;27.880;2022-12-10T03:31:15;30.50;;;12.73;;
56269;SDS011;42176;43.240;27.880;2022-12-10T03:33:43;20.38;;;9.43;;
56269;SDS011;42176;43.240;27.880;2022-12-10T03:36:12;25.35;;;10.63;;
56269;SDS011;42176;43.240;27.880;2022-12-10T03:38:38;38.50;;;14.02;;
56269;SDS011;42176;43.240;27.880;2022-12-10T03:41:05;28.23;;;11.85;;
56269;SDS011;42176;43.240;27.880;2022-12-10T03:43:30;36.00;;;12.98;;
56269;SDS011;42176;43.240;27.880;2022-12-10T03:45:56;31.98;;;13.25;;
56269;SDS011;42176;43.240;27.880;2022-12-10T03:48:21;39.92;;;13.52;;
56269;SDS011;42176;43.240;27.880;2022-12-10T03:50:47;37.78;;;12.95;;
56269;SDS011;42176;43.240;27.880;2022-12-10T03:53:12;9.43;;;5.35;;
56269;SDS011;42176;43.240;27.880;2022-12-10T03:55:38;18.92;;;10.55;;
56269;SDS011;42176;43.240;27.880;2022-12-10T03:58:03;28.25;;;13.40;;
56269;SDS011;42176;43.240;27.880;2022-12-10T04:00:29;38.47;;;14.10;;
56269;SDS011;42176;43.240;27.880;2022-12-10T04:05:36;20.52;;;7.50;;
56269;SDS011;42176;43.240;27.880;2022-12-10T04:08:01;21.85;;;10.95;;
56269;SDS011;42176;43.240;27.880;2022-12-10T04:10:27;32.60;;;13.10;;
56269;SDS011;42176;43.240;27.880;2022-12-10T04:12:52;37.90;;;13.55;;
56269;SDS011;42176;43.240;27.880;2022-12-10T04:15:38;35.53;;;14.32;;
56269;SDS011;42176;43.240;27.880;2022-12-10T04:18:23;26.92;;;11.52;;
56269;SDS011;42176;43.240;27.880;2022-12-10T04:20:48;32.80;;;12.88;;
56269;SDS011;42176;43.240;27.880;2022-12-10T04:23:37;39.45;;;12.25;;
56269;SDS011;42176;43.240;27.880;2022-12-10T04:26:21;37.53;;;14.07;;
56269;SDS011;42176;43.240;27.880;2022-12-10T04:29:05;34.90;;;15.02;;
56269;SDS011;42176;43.240;27.880;2022-12-10T04:31:32;21.75;;;10.75;;
56269;SDS011;42176;43.240;27.880;2022-12-10T04:33:57;33.90;;;11.88;;
56269;SDS011;42176;43.240;27.880;2022-12-10T04:36:23;34.38;;;13.23;;
56269;SDS011;42176;43.240;27.880;2022-12-10T04:38:48;37.72;;;13.30;;
56269;SDS011;42176;43.240;27.880;2022-12-10T04:41:14;29.35;;;13.57;;
56269;SDS011;42176;43.240;27.880;2022-12-10T04:43:40;18.23;;;11.45;;
56269;SDS011;42176;43.240;27.880;2022-12-10T04:46:07;27.20;;;11.65;;
56269;SDS011;42176;43.240;27.880;2022-12-10T04:48:34;41.53;;;15.27;;
56269;SDS011;42176;43.240;27.880;2022-12-10T04:50:59;40.90;;;14.98;;
56269;SDS011;42176;43.240;27.880;2022-12-10T04:53:24;36.47;;;16.75;;
56269;SDS011;42176;43.240;27.880;2022-12-10T04:55:50;33.30;;;15.55;;
56269;SDS011;42176;43.240;27.880;2022-12-10T04:58:15;29.33;;;15.65;;
56269;SDS011;42176;43.240;27.880;2022-12-10T05:00:41;39.72;;;16.40;;
56269;SDS011;42176;43.240;27.880;2022-12-10T05:03:06;32.10;;;15.82;;
56269;SDS011;42176;43.240;27.880;2022-12-10T05:05:33;55.45;;;20.38;;
56269;SDS011;42176;43.240;27.880;2022-12-10T05:07:59;50.70;;;19.65;;
56269;SDS011;42176;43.240;27.880;2022-12-10T05:10:24;45.35;;;19.65;;
56269;SDS011;42176;43.240;27.880;2022-12-10T05:12:50;55.60;;;21.13;;
56269;SDS011;42176;43.240;27.880;2022-12-10T05:15:15;30.70;;;13.93;;
56269;SDS011;42176;43.240;27.880;2022-12-10T05:17:41;27.52;;;14.00;;
56269;SDS011;42176;43.240;27.880;2022-12-10T05:20:07;40.17;;;18.40;;
56269;SDS011;42176;43.240;27.880;2022-12-10T05:22:33;41.63;;;19.42;;
56269;SDS011;42176;43.240;27.880;2022-12-10T05:25:17;42.70;;;18.30;;
56269;SDS011;42176;43.240;27.880;2022-12-10T05:27:42;45.22;;;17.52;;
56269;SDS011;42176;43.240;27.880;2022-12-10T05:30:08;34.88;;;16.38;;
56269;SDS011;42176;43.240;27.880;2022-12-10T05:32:34;39.50;;;16.30;;
56269;SDS011;42176;43.240;27.880;2022-12-10T05:35:00;21.10;;;11.65;;
56269;SDS011;42176;43.240;27.880;2022-12-10T05:37:27;23.08;;;10.50;;
56269;SDS011;42176;43.240;27.880;2022-12-10T05:39:53;43.70;;;16.75;;
56269;SDS011;42176;43.240;27.880;2022-12-10T05:42:19;43.53;;;16.85;;
56269;SDS011;42176;43.240;27.880;2022-12-10T05:44:45;40.80;;;18.65;;
56269;SDS011;42176;43.240;27.880;2022-12-10T05:47:10;41.33;;;18.13;;
56269;SDS011;42176;43.240;27.880;2022-12-10T05:49:36;33.70;;;16.98;;
56269;SDS011;42176;43.240;27.880;2022-12-10T05:52:02;34.72;;;15.93;;
56269;SDS011;42176;43.240;27.880;2022-12-10T05:54:28;26.30;;;14.85;;
56269;SDS011;42176;43.240;27.880;2022-12-10T05:56:53;34.55;;;16.23;;
56269;SDS011;42176;43.240;27.880;2022-12-10T05:59:19;44.33;;;19.75;;
56269;SDS011;42176;43.240;27.880;2022-12-10T06:01:45;50.50;;;20.10;;
56269;SDS011;42176;43.240;27.880;2022-12-10T06:04:11;40.00;;;18.35;;
56269;SDS011;42176;43.240;27.880;2022-12-10T06:06:37;52.03;;;20.83;;
56269;SDS011;42176;43.240;27.880;2022-12-10T06:09:04;51.63;;;19.88;;
56269;SDS011;42176;43.240;27.880;2022-12-10T06:11:32;40.97;;;21.05;;
56269;SDS011;42176;43.240;27.880;2022-12-10T06:13:58;44.20;;;16.63;;
56269;SDS011;42176;43.240;27.880;2022-12-10T06:16:25;42.00;;;16.33;;
56269;SDS011;42176;43.240;27.880;2022-12-10T06:18:52;64.18;;;19.10;;
56269;SDS011;42176;43.240;27.880;2022-12-10T06:21:18;46.55;;;18.25;;
56269;SDS011;42176;43.240;27.880;2022-12-10T06:23:45;46.70;;;19.38;;
56269;SDS011;42176;43.240;27.880;2022-12-10T06:26:13;45.10;;;20.27;;
56269;SDS011;42176;43.240;27.880;2022-12-10T06:28:40;43.58;;;17.17;;
56269;SDS011;42176;43.240;27.880;2022-12-10T06:31:06;28.52;;;16.15;;
56269;SDS011;42176;43.240;27.880;2022-12-10T06:33:32;38.47;;;17.15;;
56269;SDS011;42176;43.240;27.880;2022-12-10T06:35:58;51.47;;;18.63;;
56269;SDS011;42176;43.240;27.880;2022-12-10T06:38:24;48.05;;;19.55;;
56269;SDS011;42176;43.240;27.880;2022-12-10T06:40:50;51.05;;;20.48;;
56269;SDS011;42176;43.240;27.880;2022-12-10T06:43:16;47.05;;;20.67;;
56269;SDS011;42176;43.240;27.880;2022-12-10T06:45:42;48.13;;;23.30;;
56269;SDS011;42176;43.240;27.880;2022-12-10T06:48:08;71.47;;;25.20;;
56269;SDS011;42176;43.240;27.880;2022-12-10T06:50:34;31.00;;;17.30;;
56269;SDS011;42176;43.240;27.880;2022-12-10T06:53:00;61.08;;;20.63;;
56269;SDS011;42176;43.240;27.880;2022-12-10T06:55:26;46.22;;;21.42;;
56269;SDS011;42176;43.240;27.880;2022-12-10T06:57:51;49.85;;;20.95;;
56269;SDS011;42176;43.240;27.880;2022-12-10T07:00:18;51.53;;;20.48;;
56269;SDS011;42176;43.240;27.880;2022-12-10T07:02:45;49.10;;;22.00;;
56269;SDS011;42176;43.240;27.880;2022-12-10T07:05:10;47.17;;;21.17;;
56269;SDS011;42176;43.240;27.880;2022-12-10T07:07:36;45.72;;;20.30;;
56269;SDS011;42176;43.240;27.880;2022-12-10T07:10:02;36.22;;;17.92;;
56269;SDS011;42176;43.240;27.880;2022-12-10T07:12:28;25.48;;;15.65;;
56269;SDS011;42176;43.240;27.880;2022-12-10T07:14:54;37.75;;;18.10;;
56269;SDS011;42176;43.240;27.880;2022-12-10T07:17:20;47.85;;;20.40;;
56269;SDS011;42176;43.240;27.880;2022-12-10T07:19:46;50.42;;;19.27;;
56269;SDS011;42176;43.240;27.880;2022-12-10T07:22:11;56.28;;;20.30;;
56269;SDS011;42176;43.240;27.880;2022-12-10T07:24:37;34.85;;;18.13;;
56269;SDS011;42176;43.240;27.880;2022-12-10T07:27:06;44.95;;;18.90;;
56269;SDS011;42176;43.240;27.880;2022-12-10T07:29:31;32.03;;;16.00;;
56269;SDS011;42176;43.240;27.880;2022-12-10T07:31:57;45.67;;;15.98;;
56269;SDS011;42176;43.240;27.880;2022-12-10T07:34:22;29.85;;;12.60;;
56269;SDS011;42176;43.240;27.880;2022-12-10T07:36:48;33.47;;;13.85;;
56269;SDS011;42176;43.240;27.880;2022-12-10T07:39:13;31.02;;;13.60;;
56269;SDS011;42176;43.240;27.880;2022-12-10T07:41:43;28.55;;;12.68;;
56269;SDS011;42176;43.240;27.880;2022-12-10T07:44:10;29.77;;;10.93;;
56269;SDS011;42176;43.240;27.880;2022-12-10T07:46:37;21.40;;;9.65;;
56269;SDS011;42176;43.240;27.880;2022-12-10T07:49:03;18.20;;;8.93;;
56269;SDS011;42176;43.240;27.880;2022-12-10T07:51:28;35.85;;;10.65;;
56269;SDS011;42176;43.240;27.880;2022-12-10T07:53:54;22.00;;;10.10;;
56269;SDS011;42176;43.240;27.880;2022-12-10T07:56:20;23.17;;;9.30;;
56269;SDS011;42176;43.240;27.880;2022-12-10T07:58:47;21.85;;;9.57;;
56269;SDS011;42176;43.240;27.880;2022-12-10T08:01:13;31.38;;;9.40;;
56269;SDS011;42176;43.240;27.880;2022-12-10T08:03:41;23.95;;;9.70;;
56269;SDS011;42176;43.240;27.880;2022-12-10T08:06:08;28.13;;;10.20;;
56269;SDS011;42176;43.240;27.880;2022-12-10T08:08:36;20.35;;;9.00;;
56269;SDS011;42176;43.240;27.880;2022-12-10T08:11:03;24.90;;;9.25;;
56269;SDS011;42176;43.240;27.880;2022-12-10T08:13:30;22.92;;;8.93;;
56269;SDS011;42176;43.240;27.880;2022-12-10T08:16:03;25.27;;;9.93;;
56269;SDS011;42176;43.240;27.880;2022-12-10T08:18:31;30.70;;;10.38;;
56269;SDS011;42176;43.240;27.880;2022-12-10T08:20:57;30.63;;;10.32;;
56269;SDS011;42176;43.240;27.880;2022-12-10T08:23:23;28.40;;;9.48;;
56269;SDS011;42176;43.240;27.880;2022-12-10T08:25:49;28.92;;;8.57;;
56269;SDS011;42176;43.240;27.880;2022-12-10T08:28:14;21.35;;;9.18;;
56269;SDS011;42176;43.240;27.880;2022-12-10T08:30:44;20.08;;;8.65;;
56269;SDS011;42176;43.240;27.880;2022-12-10T08:33:14;24.58;;;8.27;;
56269;SDS011;42176;43.240;27.880;2022-12-10T08:35:39;30.30;;;8.93;;
56269;SDS011;42176;43.240;27.880;2022-12-10T08:38:05;21.13;;;9.13;;
56269;SDS011;42176;43.240;27.880;2022-12-10T08:40:31;18.27;;;7.95;;
56269;SDS011;42176;43.240;27.880;2022-12-10T08:42:56;20.80;;;7.97;;
56269;SDS011;42176;43.240;27.880;2022-12-10T08:45:21;24.70;;;7.65;;
56269;SDS011;42176;43.240;27.880;2022-12-10T08:47:47;23.05;;;7.50;;
56269;SDS011;42176;43.240;27.880;2022-12-10T08:50:12;30.45;;;8.18;;
56269;SDS011;42176;43.240;27.880;2022-12-10T08:52:38;20.73;;;7.97;;
56269;SDS011;42176;43.240;27.880;2022-12-10T08:55:03;23.80;;;7.70;;
56269;SDS011;42176;43.240;27.880;2022-12-10T08:57:29;21.30;;;8.23;;
56269;SDS011;42176;43.240;27.880;2022-12-10T08:59:54;34.92;;;8.52;;
56269;SDS011;42176;43.240;27.880;2022-12-10T09:02:20;30.17;;;8.80;;
56269;SDS011;42176;43.240;27.880;2022-12-10T09:04:45;45.47;;;10.27;;
56269;SDS011;42176;43.240;27.880;2022-12-10T09:07:11;27.75;;;9.15;;
56269;SDS011;42176;43.240;27.880;2022-12-10T09:09:37;32.40;;;9.00;;
56269;SDS011;42176;43.240;27.880;2022-12-10T09:12:02;26.35;;;7.50;;
56269;SDS011;42176;43.240;27.880;2022-12-10T09:14:28;29.63;;;8.25;;
56269;SDS011;42176;43.240;27.880;2022-12-10T09:16:54;24.27;;;8.15;;
56269;SDS011;42176;43.240;27.880;2022-12-10T09:19:19;23.48;;;8.50;;
56269;SDS011;42176;43.240;27.880;2022-12-10T09:21:44;20.17;;;8.25;;
56269;SDS011;42176;43.240;27.880;2022-12-10T09:24:10;22.60;;;9.27;;
56269;SDS011;42176;43.240;27.880;2022-12-10T09:26:35;26.98;;;9.23;;
56269;SDS011;42176;43.240;27.880;2022-12-10T09:29:01;25.00;;;9.57;;
56269;SDS011;42176;43.240;27.880;2022-12-10T09:31:26;20.67;;;8.10;;
56269;SDS011;42176;43.240;27.880;2022-12-10T09:33:52;23.98;;;9.13;;
56269;SDS011;42176;43.240;27.880;2022-12-10T09:36:19;20.85;;;8.70;;
56269;SDS011;42176;43.240;27.880;2022-12-10T09:38:45;21.42;;;8.27;;
56269;SDS011;42176;43.240;27.880;2022-12-10T09:41:27;25.27;;;8.75;;
56269;SDS011;42176;43.240;27.880;2022-12-10T09:47:02;20.08;;;7.20;;
56269;SDS011;42176;43.240;27.880;2022-12-10T09:49:49;21.02;;;7.68;;
56269;SDS011;42176;43.240;27.880;2022-12-10T09:52:36;20.42;;;7.68;;
56269;SDS011;42176;43.240;27.880;2022-12-10T09:55:08;15.25;;;6.93;;
56269;SDS011;42176;43.240;27.880;2022-12-10T09:57:39;22.50;;;6.95;;
56269;SDS011;42176;43.240;27.880;2022-12-10T10:02:43;18.45;;;7.05;;
56269;SDS011;42176;43.240;27.880;2022-12-10T10:05:10;20.02;;;6.05;;
56269;SDS011;42176;43.240;27.880;2022-12-10T10:07:47;18.63;;;5.78;;
56269;SDS011;42176;43.240;27.880;2022-12-10T10:10:19;14.30;;;5.15;;
56269;SDS011;42176;43.240;27.880;2022-12-10T10:12:49;17.85;;;5.72;;
56269;SDS011;42176;43.240;27.880;2022-12-10T10:15:20;12.82;;;5.28;;
56269;SDS011;42176;43.240;27.880;2022-12-10T10:17:49;9.33;;;5.10;;
56269;SDS011;42176;43.240;27.880;2022-12-10T10:20:18;14.77;;;5.18;;
56269;SDS011;42176;43.240;27.880;2022-12-10T10:22:44;16.65;;;5.47;;
56269;SDS011;42176;43.240;27.880;2022-12-10T10:25:14;14.05;;;5.57;;
56269;SDS011;42176;43.240;27.880;2022-12-10T10:27:42;16.58;;;5.03;;
56269;SDS011;42176;43.240;27.880;2022-12-10T10:30:13;14.15;;;5.03;;
56269;SDS011;42176;43.240;27.880;2022-12-10T10:32:53;10.82;;;5.68;;
56269;SDS011;42176;43.240;27.880;2022-12-10T10:35:25;15.68;;;6.40;;
56269;SDS011;42176;43.240;27.880;2022-12-10T10:40:42;17.05;;;5.22;;
56269;SDS011;42176;43.240;27.880;2022-12-10T10:43:18;13.48;;;5.15;;
56269;SDS011;42176;43.240;27.880;2022-12-10T10:45:48;17.58;;;4.85;;
56269;SDS011;42176;43.240;27.880;2022-12-10T10:48:21;19.83;;;5.68;;
56269;SDS011;42176;43.240;27.880;2022-12-10T10:50:49;16.92;;;4.95;;
56269;SDS011;42176;43.240;27.880;2022-12-10T10:53:33;13.38;;;4.55;;
56269;SDS011;42176;43.240;27.880;2022-12-10T10:56:10;19.52;;;4.35;;
56269;SDS011;42176;43.240;27.880;2022-12-10T10:59:02;12.60;;;5.07;;
56269;SDS011;42176;43.240;27.880;2022-12-10T11:01:50;10.38;;;4.47;;
56269;SDS011;42176;43.240;27.880;2022-12-10T11:06:56;12.23;;;4.05;;
56269;SDS011;42176;43.240;27.880;2022-12-10T11:09:29;11.00;;;4.43;;
56269;SDS011;42176;43.240;27.880;2022-12-10T11:12:02;15.07;;;4.82;;
56269;SDS011;42176;43.240;27.880;2022-12-10T11:14:31;15.00;;;4.70;;
56269;SDS011;42176;43.240;27.880;2022-12-10T11:17:16;13.07;;;4.38;;
56269;SDS011;42176;43.240;27.880;2022-12-10T11:19:52;6.03;;;3.43;;
56269;SDS011;42176;43.240;27.880;2022-12-10T11:22:21;14.07;;;4.13;;
56269;SDS011;42176;43.240;27.880;2022-12-10T11:24:48;9.95;;;3.92;;
56269;SDS011;42176;43.240;27.880;2022-12-10T11:27:25;19.45;;;4.15;;
56269;SDS011;42176;43.240;27.880;2022-12-10T11:30:02;15.75;;;4.07;;
56269;SDS011;42176;43.240;27.880;2022-12-10T11:43:13;13.73;;;4.43;;
56269;SDS011;42176;43.240;27.880;2022-12-10T11:56:52;12.15;;;4.53;;
56269;SDS011;42176;43.240;27.880;2022-12-10T11:59:43;15.43;;;4.13;;
56269;SDS011;42176;43.240;27.880;2022-12-10T12:10:51;10.40;;;4.80;;
56269;SDS011;42176;43.240;27.880;2022-12-10T12:13:19;11.80;;;5.75;;
56269;SDS011;42176;43.240;27.880;2022-12-10T12:15:57;14.35;;;5.13;;
56269;SDS011;42176;43.240;27.880;2022-12-10T12:21:03;12.05;;;3.83;;
56269;SDS011;42176;43.240;27.880;2022-12-10T12:23:36;10.15;;;4.30;;
56269;SDS011;42176;43.240;27.880;2022-12-10T12:26:27;12.00;;;4.78;;
56269;SDS011;42176;43.240;27.880;2022-12-10T12:31:31;15.10;;;4.45;;
56269;SDS011;42176;43.240;27.880;2022-12-10T12:36:51;15.05;;;4.00;;
56269;SDS011;42176;43.240;27.880;2022-12-10T12:39:27;10.80;;;4.45;;
56269;SDS011;42176;43.240;27.880;2022-12-10T12:42:00;17.30;;;4.85;;
56269;SDS011;42176;43.240;27.880;2022-12-10T12:44:34;12.02;;;4.88;;
56269;SDS011;42176;43.240;27.880;2022-12-10T12:47:18;12.50;;;4.85;;
56269;SDS011;42176;43.240;27.880;2022-12-10T12:49:44;10.18;;;4.20;;
56269;SDS011;42176;43.240;27.880;2022-12-10T12:58:45;13.75;;;5.40;;
56269;SDS011;42176;43.240;27.880;2022-12-10T13:01:37;11.07;;;4.10;;
56269;SDS011;42176;43.240;27.880;2022-12-10T13:04:03;15.57;;;4.60;;
56269;SDS011;42176;43.240;27.880;2022-12-10T13:06:32;20.08;;;4.45;;
56269;SDS011;42176;43.240;27.880;2022-12-10T13:11:37;12.13;;;4.40;;
56269;SDS011;42176;43.240;27.880;2022-12-10T13:37:34;21.75;;;6.35;;
56269;SDS011;42176;43.240;27.880;2022-12-10T13:46:32;8.20;;;3.78;;
56269;SDS011;42176;43.240;27.880;2022-12-10T13:49:05;23.53;;;6.67;;
56269;SDS011;42176;43.240;27.880;2022-12-10T13:51:49;17.40;;;6.13;;
56269;SDS011;42176;43.240;27.880;2022-12-10T13:54:20;13.50;;;6.47;;
56269;SDS011;42176;43.240;27.880;2022-12-10T14:01:52;21.83;;;6.78;;
56269;SDS011;42176;43.240;27.880;2022-12-10T14:07:19;17.63;;;7.15;;
56269;SDS011;42176;43.240;27.880;2022-12-10T14:09:46;26.67;;;7.60;;
56269;SDS011;42176;43.240;27.880;2022-12-10T14:12:26;32.63;;;7.32;;
56269;SDS011;42176;43.240;27.880;2022-12-10T14:15:00;29.42;;;9.13;;
56269;SDS011;42176;43.240;27.880;2022-12-10T14:17:33;38.03;;;8.77;;
56269;SDS011;42176;43.240;27.880;2022-12-10T14:20:03;37.65;;;10.50;;
56269;SDS011;42176;43.240;27.880;2022-12-10T14:22:37;23.35;;;8.55;;
56269;SDS011;42176;43.240;27.880;2022-12-10T14:25:13;25.27;;;9.23;;
56269;SDS011;42176;43.240;27.880;2022-12-10T14:27:43;23.10;;;8.32;;
56269;SDS011;42176;43.240;27.880;2022-12-10T14:32:41;21.13;;;6.28;;
56269;SDS011;42176;43.240;27.880;2022-12-10T14:35:11;20.98;;;7.32;;
56269;SDS011;42176;43.240;27.880;2022-12-10T14:37:56;16.27;;;7.00;;
56269;SDS011;42176;43.240;27.880;2022-12-10T14:40:24;21.35;;;7.90;;
56269;SDS011;42176;43.240;27.880;2022-12-10T14:42:54;22.15;;;7.30;;
56269;SDS011;42176;43.240;27.880;2022-12-10T14:45:29;24.67;;;8.43;;
56269;SDS011;42176;43.240;27.880;2022-12-10T14:48:03;20.70;;;9.80;;
56269;SDS011;42176;43.240;27.880;2022-12-10T14:50:32;34.67;;;12.07;;
56269;SDS011;42176;43.240;27.880;2022-12-10T14:52:57;26.20;;;12.75;;
56269;SDS011;42176;43.240;27.880;2022-12-10T14:55:25;33.72;;;12.13;;
56269;SDS011;42176;43.240;27.880;2022-12-10T14:57:53;28.17;;;11.75;;
56269;SDS011;42176;43.240;27.880;2022-12-10T15:00:22;37.15;;;13.43;;
56269;SDS011;42176;43.240;27.880;2022-12-10T15:02:50;29.55;;;15.23;;
56269;SDS011;42176;43.240;27.880;2022-12-10T15:05:20;38.25;;;16.58;;
56269;SDS011;42176;43.240;27.880;2022-12-10T15:10:31;35.78;;;17.35;;
56269;SDS011;42176;43.240;27.880;2022-12-10T15:13:00;27.10;;;14.40;;
56269;SDS011;42176;43.240;27.880;2022-12-10T15:15:34;34.33;;;11.32;;
56269;SDS011;42176;43.240;27.880;2022-12-10T15:18:03;34.70;;;11.25;;
56269;SDS011;42176;43.240;27.880;2022-12-10T15:20:43;38.58;;;11.55;;
56269;SDS011;42176;43.240;27.880;2022-12-10T15:28:40;20.30;;;9.93;;
56269;SDS011;42176;43.240;27.880;2022-12-10T15:33:45;34.15;;;11.55;;
56269;SDS011;42176;43.240;27.880;2022-12-10T15:36:22;21.23;;;9.18;;
56269;SDS011;42176;43.240;27.880;2022-12-10T15:38:54;36.67;;;11.07;;
56269;SDS011;42176;43.240;27.880;2022-12-10T15:41:24;32.22;;;9.68;;
56269;SDS011;42176;43.240;27.880;2022-12-10T15:44:06;46.97;;;10.93;;
56269;SDS011;42176;43.240;27.880;2022-12-10T15:49:35;31.55;;;10.95;;
56269;SDS011;42176;43.240;27.880;2022-12-10T15:52:01;27.48;;;10.35;;
56269;SDS011;42176;43.240;27.880;2022-12-10T15:57:13;34.05;;;12.32;;
56269;SDS011;42176;43.240;27.880;2022-12-10T15:59:41;38.47;;;11.52;;
56269;SDS011;42176;43.240;27.880;2022-12-10T16:04:59;27.40;;;10.50;;
56269;SDS011;42176;43.240;27.880;2022-12-10T16:07:25;19.75;;;8.18;;
56269;SDS011;42176;43.240;27.880;2022-12-10T16:09:50;33.65;;;9.43;;
56269;SDS011;42176;43.240;27.880;2022-12-10T16:12:16;24.73;;;8.43;;
56269;SDS011;42176;43.240;27.880;2022-12-10T16:14:52;35.60;;;10.07;;
56269;SDS011;42176;43.240;27.880;2022-12-10T16:17:27;29.23;;;9.02;;
56269;SDS011;42176;43.240;27.880;2022-12-10T16:19:57;24.10;;;9.15;;
56269;SDS011;42176;43.240;27.880;2022-12-10T16:22:24;29.23;;;10.27;;
56269;SDS011;42176;43.240;27.880;2022-12-10T16:24:50;31.83;;;9.35;;
56269;SDS011;42176;43.240;27.880;2022-12-10T16:27:16;23.52;;;9.10;;
56269;SDS011;42176;43.240;27.880;2022-12-10T16:29:42;24.75;;;8.30;;
56269;SDS011;42176;43.240;27.880;2022-12-10T16:32:11;33.08;;;10.57;;
56269;SDS011;42176;43.240;27.880;2022-12-10T16:34:37;24.42;;;8.65;;
56269;SDS011;42176;43.240;27.880;2022-12-10T16:37:04;26.75;;;7.80;;
56269;SDS011;42176;43.240;27.880;2022-12-10T16:39:30;25.73;;;8.82;;
56269;SDS011;42176;43.240;27.880;2022-12-10T16:41:56;24.10;;;7.38;;
56269;SDS011;42176;43.240;27.880;2022-12-10T16:44:22;22.20;;;7.93;;
56269;SDS011;42176;43.240;27.880;2022-12-10T16:46:48;20.52;;;8.65;;
56269;SDS011;42176;43.240;27.880;2022-12-10T16:49:13;24.00;;;8.35;;
56269;SDS011;42176;43.240;27.880;2022-12-10T16:51:38;30.13;;;7.68;;
56269;SDS011;42176;43.240;27.880;2022-12-10T16:54:08;24.75;;;6.93;;
56269;SDS011;42176;43.240;27.880;2022-12-10T16:56:34;20.48;;;8.15;;